Ahrenlohe Airport


Codes: EDHO/
Name: Ahrenlohe Airport
City: Tornesch
Country: Germany
Elevation: 33 ft.

Photos at Ahrenlohe Airport


   Photos courtesy of SpottingLog. You can add your own sightings and photos by signing up for a free trial today.



No photos found.

Weather at Ahrenlohe Airport


Time (UTC)DescriptionTempratureWindCloud coverageVisibilityPressureHumidity
23-May-2024 18:00Light Rain19°C7 mph, NW20%10000m1015hPa66%
23-May-2024 21:00Few Clouds17°C2 mph, N13%10000m1016hPa75%
24-May-2024 00:00Clear Sky14°C2 mph, N10%10000m1017hPa84%
24-May-2024 03:00Scattered Clouds11°C2 mph, E26%10000m1019hPa94%
24-May-2024 06:00Few Clouds14°C4 mph, NE18%10000m1020hPa85%
24-May-2024 09:00Clear Sky19°C7 mph, NE9%10000m1020hPa66%
24-May-2024 12:00Scattered Clouds21°C9 mph, NE42%10000m1019hPa58%
24-May-2024 15:00Overcast Clouds20°C13 mph, NE100%10000m1019hPa67%
24-May-2024 18:00Broken Clouds17°C11 mph, NE78%10000m1019hPa75%
24-May-2024 21:00Few Clouds13°C9 mph, NE20%10000m1019hPa81%
25-May-2024 00:00Scattered Clouds12°C7 mph, E34%10000m1019hPa85%
25-May-2024 03:00Broken Clouds12°C7 mph, NE83%10000m1018hPa86%
25-May-2024 06:00Overcast Clouds13°C4 mph, E92%10000m1018hPa83%
25-May-2024 09:00Light Rain14°C4 mph, E100%10000m1018hPa84%
25-May-2024 12:00Light Rain17°C4 mph, NE100%10000m1018hPa74%
25-May-2024 15:00Overcast Clouds20°C7 mph, NE100%10000m1017hPa65%
25-May-2024 18:00Overcast Clouds17°C7 mph, NE99%10000m1017hPa81%
25-May-2024 21:00Overcast Clouds13°C4 mph, E93%10000m1018hPa95%
26-May-2024 00:00Broken Clouds12°C4 mph, E82%10000m1018hPa95%
26-May-2024 03:00Few Clouds12°C2 mph, SE15%10000m1017hPa95%
26-May-2024 06:00Few Clouds16°C2 mph, S13%10000m1018hPa85%
26-May-2024 09:00Clear Sky21°C4 mph, SW9%10000m1018hPa65%
26-May-2024 12:00Clear Sky24°C4 mph, SW9%10000m1017hPa50%
26-May-2024 15:00Broken Clouds22°C4 mph, S73%10000m1016hPa61%
26-May-2024 18:00Light Rain20°C2 mph, W86%10000m1016hPa78%
26-May-2024 21:00Light Rain16°C2 mph, SE92%10000m1017hPa85%
27-May-2024 00:00Overcast Clouds15°C4 mph, S96%10000m1016hPa90%
27-May-2024 03:00Overcast Clouds14°C4 mph, S100%10000m1016hPa93%
27-May-2024 06:00Light Rain15°C4 mph, W100%10000m1017hPa94%
27-May-2024 09:00Light Rain18°C7 mph, W100%10000m1017hPa83%
27-May-2024 12:00Light Rain20°C7 mph, W100%10000m1017hPa65%
27-May-2024 15:00Overcast Clouds20°C7 mph, NW90%10000m1016hPa58%
27-May-2024 18:00Light Rain16°C4 mph, NW92%10000m1016hPa77%
27-May-2024 21:00Light Rain14°C4 mph, N100%10000m1016hPa93%
28-May-2024 00:00Moderate Rain13°C4 mph, N100%10000m1015hPa98%
28-May-2024 03:00Light Rain13°C2 mph, NE100%10000m1014hPa98%
28-May-2024 06:00Light Rain14°C2 mph, SW100%6888m1014hPa99%
28-May-2024 09:00Moderate Rain12°C13 mph, W100%9638m1015hPa97%
28-May-2024 12:00Light Rain12°C9 mph, W100%10000m1016hPa96%
28-May-2024 15:00Light Rain15°C9 mph, W100%10000m1015hPa70%